Time;durP1;ratioP1;P1;durP2;ratioP2;P2;SDS_P1;SDS_P2;PMS_P1;PMS_P2;Temp;Humidity;BMP_temperature;BMP_pressure;BME280_temperature;BME280_humidity;BME280_pressure;Samples;Min_cycle;Max_cycle;Signal;HPM_P1;HPM_P2
2022/03/10 00:02:02;;;;;;;;;17.33;16.33;;;;;;;;5211794;28;9807;-75
2022/03/10 00:04:34;;;;;;;;;19.25;16.75;;;;;;;;5211916;28;10404;-82
2022/03/10 00:07:06;;;;;;;;;39.75;38.75;;;;;;;;5245573;28;10052;-76
2022/03/10 00:09:37;;;;;;;;;31.00;31.00;;;;;;;;5228031;28;10242;-73
2022/03/10 00:12:08;;;;;;;;;11.67;11.67;;;;;;;;5227953;28;9905;-75
2022/03/10 00:14:39;;;;;;;;;30.00;26.25;;;;;;;;5228207;28;9581;-75
2022/03/10 00:17:15;;;;;;;;;45.25;42.75;;;;;;;;5212600;28;10204;-75
2022/03/10 00:19:46;;;;;;;;;43.00;41.25;;;;;;;;5211642;28;10299;-76
2022/03/10 00:22:17;;;;;;;;;44.25;39.50;;;;;;;;5228289;28;8775;-76
2022/03/10 00:24:48;;;;;;;;;67.75;55.75;;;;;;;;5211788;28;10997;-76
2022/03/10 00:27:19;;;;;;;;;47.00;42.25;;;;;;;;5232240;28;11490;-76
2022/03/10 00:29:50;;;;;;;;;10.25;7.50;;;;;;;;5215639;28;10878;-76
2022/03/10 00:32:41;;;;;;;;;24.67;24.00;;;;;;;;5231988;28;10342;-75
2022/03/10 00:35:19;;;;;;;;;5.33;5.33;;;;;;;;5215184;28;9741;-75
2022/03/10 00:37:50;;;;;;;;;6.67;6.67;;;;;;;;5232167;28;9441;-77
2022/03/10 00:40:22;;;;;;;;;15.00;12.00;;;;;;;;5232187;28;10287;-76
2022/03/10 00:42:53;;;;;;;;;5.33;5.33;;;;;;;;5231918;28;9357;-75
2022/03/10 00:45:25;;;;;;;;;12.33;12.00;;;;;;;;5215881;28;9858;-75
2022/03/10 00:47:56;;;;;;;;;4.00;2.33;;;;;;;;5215330;28;9626;-74
2022/03/10 00:50:27;;;;;;;;;16.33;15.67;;;;;;;;5248511;28;9385;-76
2022/03/10 00:53:01;;;;;;;;;14.75;14.75;;;;;;;;5231692;28;9773;-76
2022/03/10 00:55:33;;;;;;;;;13.67;13.67;;;;;;;;5215305;28;9807;-77
2022/03/10 00:58:04;;;;;;;;;21.25;20.00;;;;;;;;5214848;28;9701;-79
2022/03/10 01:00:35;;;;;;;;;12.00;12.00;;;;;;;;5215510;28;9868;-79
2022/03/10 01:03:07;;;;;;;;;14.33;14.33;;;;;;;;5215321;28;9976;-79
2022/03/10 01:05:38;;;;;;;;;32.00;32.00;;;;;;;;5231513;28;9414;-76
2022/03/10 01:08:09;;;;;;;;;26.00;26.00;;;;;;;;5231132;28;10140;-74
2022/03/10 01:10:40;;;;;;;;;45.75;43.75;;;;;;;;5214971;28;10806;-74
2022/03/10 01:13:16;;;;;;;;;23.00;23.00;;;;;;;;5231280;28;10371;-74
2022/03/10 01:15:47;;;;;;;;;13.00;13.00;;;;;;;;5215061;28;9987;-72
2022/03/10 01:18:19;;;;;;;;;14.33;12.67;;;;;;;;5231300;28;9731;-72
2022/03/10 01:20:50;;;;;;;;;3.00;3.00;;;;;;;;5214739;28;9431;-72
2022/03/10 01:23:21;;;;;;;;;18.00;18.00;;;;;;;;5231402;28;9330;-78
2022/03/10 01:25:52;;;;;;;;;30.25;27.25;;;;;;;;5247868;28;9981;-75
2022/03/10 01:28:24;;;;;;;;;21.25;20.50;;;;;;;;5230670;28;10249;-78
2022/03/10 01:30:55;;;;;;;;;33.00;30.50;;;;;;;;5214457;28;9948;-77
2022/03/10 01:33:27;;;;;;;;;31.50;31.50;;;;;;;;5230915;28;10351;-76
2022/03/10 01:35:58;;;;;;;;;31.25;30.75;;;;;;;;5213549;28;10471;-76
2022/03/10 01:38:29;;;;;;;;;37.50;37.50;;;;;;;;5213880;28;10477;-75
2022/03/10 01:41:00;;;;;;;;;18.75;17.25;;;;;;;;5214322;28;10751;-73
2022/03/10 01:43:31;;;;;;;;;35.50;34.00;;;;;;;;5230402;28;10179;-74
2022/03/10 01:46:02;;;;;;;;;28.25;27.50;;;;;;;;5231329;28;11001;-73
2022/03/10 01:48:34;;;;;;;;;24.25;21.25;;;;;;;;5213534;28;10218;-73
2022/03/10 01:51:05;;;;;;;;;29.75;29.00;;;;;;;;5248614;28;10070;-72
2022/03/10 01:53:36;;;;;;;;;8.75;8.50;;;;;;;;5230623;28;8769;-74
2022/03/10 01:56:07;;;;;;;;;24.50;23.50;;;;;;;;5225315;28;10003;-72
2022/03/10 01:58:38;;;;;;;;;20.00;19.00;;;;;;;;5230313;28;9996;-72
2022/03/10 02:01:10;;;;;;;;;9.75;8.75;;;;;;;;5213989;28;10103;-74
2022/03/10 02:03:42;;;;;;;;;8.75;8.75;;;;;;;;5220252;28;9878;-74
2022/03/10 02:06:32;;;;;;;;;13.00;10.33;;;;;;;;5216159;28;10843;-74
2022/03/10 02:11:53;;;;;;;;;14.33;14.33;;;;;;;;5248069;28;9718;-74
2022/03/10 02:17:20;;;;;;;;;16.33;16.33;;;;;;;;5229364;28;10147;-76
2022/03/10 02:19:53;;;;;;;;;14.67;14.33;;;;;;;;5196893;28;9572;-73
2022/03/10 02:22:25;;;;;;;;;83.00;65.00;;;;;;;;5213343;28;9482;-73
2022/03/10 02:24:56;;;;;;;;;27.25;26.00;;;;;;;;5229797;28;11447;-74
2022/03/10 02:27:28;;;;;;;;;15.67;14.33;;;;;;;;5229795;28;10140;-72
2022/03/10 02:30:00;;;;;;;;;11.00;9.00;;;;;;;;5230102;28;9699;-73
2022/03/10 02:32:32;;;;;;;;;9.25;9.25;;;;;;;;5223215;28;10468;-73
2022/03/10 02:35:04;;;;;;;;;12.00;12.00;;;;;;;;5198020;28;9819;-72
2022/03/10 02:37:35;;;;;;;;;15.50;15.00;;;;;;;;5228620;28;9812;-72
2022/03/10 02:40:07;;;;;;;;;13.75;13.25;;;;;;;;5229800;28;10135;-72
2022/03/10 02:42:38;;;;;;;;;17.25;15.50;;;;;;;;5198566;28;10308;-73
2022/03/10 02:45:10;;;;;;;;;12.00;12.00;;;;;;;;5213028;28;11009;-73
2022/03/10 02:47:41;;;;;;;;;20.75;18.25;;;;;;;;5207615;28;10194;-72
2022/03/10 02:50:12;;;;;;;;;14.00;14.00;;;;;;;;5225726;28;10624;-73
2022/03/10 02:52:44;;;;;;;;;9.00;9.00;;;;;;;;5229375;28;10267;-73
2022/03/10 02:55:15;;;;;;;;;13.50;13.50;;;;;;;;5194548;28;10141;-76
2022/03/10 02:57:47;;;;;;;;;9.75;9.00;;;;;;;;5228944;28;10146;-73
2022/03/10 03:00:18;;;;;;;;;24.25;24.25;;;;;;;;5221632;28;9964;-72
2022/03/10 03:02:49;;;;;;;;;14.25;13.75;;;;;;;;5229277;28;10281;-72
2022/03/10 03:05:20;;;;;;;;;10.75;9.50;;;;;;;;5212291;28;11429;-72
2022/03/10 03:07:51;;;;;;;;;12.50;12.50;;;;;;;;5212515;28;10655;-73
2022/03/10 03:10:22;;;;;;;;;16.25;15.50;;;;;;;;5212711;28;8784;-73
2022/03/10 03:12:53;;;;;;;;;4.00;4.00;;;;;;;;5212203;28;11680;-73
2022/03/10 03:15:24;;;;;;;;;20.00;20.00;;;;;;;;5212692;28;9837;-73
2022/03/10 03:17:55;;;;;;;;;17.50;17.50;;;;;;;;5210388;28;10049;-73
2022/03/10 03:20:26;;;;;;;;;25.00;23.25;;;;;;;;5217456;28;8788;-76
2022/03/10 03:22:58;;;;;;;;;36.25;33.25;;;;;;;;5234169;28;10511;-72
2022/03/10 03:25:29;;;;;;;;;31.25;31.25;;;;;;;;5245396;28;11113;-72
2022/03/10 03:28:00;;;;;;;;;19.25;18.75;;;;;;;;5211728;28;11249;-73
2022/03/10 03:30:31;;;;;;;;;27.75;24.75;;;;;;;;5228023;28;10294;-73
2022/03/10 03:33:02;;;;;;;;;40.50;39.50;;;;;;;;5228374;28;10433;-74
2022/03/10 03:35:34;;;;;;;;;44.00;36.50;;;;;;;;5229214;28;10926;-74
2022/03/10 03:38:05;;;;;;;;;47.50;34.25;;;;;;;;5212363;28;10840;-74
2022/03/10 03:40:36;;;;;;;;;79.25;63.50;;;;;;;;5228599;28;11446;-73
2022/03/10 03:43:07;;;;;;;;;66.50;54.75;;;;;;;;5212114;28;8796;-74
2022/03/10 03:45:39;;;;;;;;;22.50;21.50;;;;;;;;5245921;28;11445;-73
2022/03/10 03:48:10;;;;;;;;;23.50;22.50;;;;;;;;5228379;28;11082;-73
2022/03/10 03:50:41;;;;;;;;;25.50;22.50;;;;;;;;5211932;28;11537;-73
2022/03/10 03:53:12;;;;;;;;;18.00;16.00;;;;;;;;5228011;28;10394;-74
2022/03/10 03:55:43;;;;;;;;;6.75;6.25;;;;;;;;5228658;28;9853;-75
2022/03/10 03:58:15;;;;;;;;;9.00;9.00;;;;;;;;5207341;28;9876;-76
2022/03/10 04:00:47;;;;;;;;;3.00;3.00;;;;;;;;5182009;28;10282;-76
2022/03/10 04:03:19;;;;;;;;;10.33;9.33;;;;;;;;5170891;28;9418;-76
2022/03/10 04:05:50;;;;;;;;;3.33;3.00;;;;;;;;5223732;28;9725;-76
2022/03/10 04:08:39;;;;;;;;;3.00;3.00;;;;;;;;5224217;28;9208;-74
2022/03/10 04:11:10;;;;;;;;;3.00;3.00;;;;;;;;5224102;28;9482;-74
2022/03/10 04:14:00;;;;;;;;;14.33;14.33;;;;;;;;5224316;28;9589;-75
2022/03/10 04:16:31;;;;;;;;;10.33;10.33;;;;;;;;5207821;28;9758;-75
2022/03/10 04:19:03;;;;;;;;;15.50;15.50;;;;;;;;5207369;28;9835;-75
2022/03/10 04:21:34;;;;;;;;;13.50;13.50;;;;;;;;5224079;28;10175;-74
2022/03/10 04:24:23;;;;;;;;;31.00;29.00;;;;;;;;5209450;28;10282;-75
2022/03/10 04:26:54;;;;;;;;;52.00;45.00;;;;;;;;5224007;28;10213;-75
2022/03/10 04:29:26;;;;;;;;;68.50;57.00;;;;;;;;5240008;28;11025;-77
2022/03/10 04:31:57;;;;;;;;;24.00;24.00;;;;;;;;5224083;28;11468;-76
2022/03/10 04:34:28;;;;;;;;;61.25;51.75;;;;;;;;5207919;28;10718;-77
2022/03/10 04:36:59;;;;;;;;;47.75;45.50;;;;;;;;5207365;28;11561;-77
2022/03/10 04:39:30;;;;;;;;;81.25;66.75;;;;;;;;5207167;28;11505;-77
2022/03/10 04:42:01;;;;;;;;;38.75;31.50;;;;;;;;5223371;28;11595;-76
2022/03/10 04:44:32;;;;;;;;;19.75;17.75;;;;;;;;5223910;28;8802;-76
2022/03/10 04:47:05;;;;;;;;;62.25;51.25;;;;;;;;5207015;28;10807;-76
2022/03/10 04:49:36;;;;;;;;;40.50;39.50;;;;;;;;5207583;28;10956;-77
2022/03/10 04:52:07;;;;;;;;;44.75;41.00;;;;;;;;5207327;28;10862;-77
2022/03/10 04:54:38;;;;;;;;;28.25;25.50;;;;;;;;5207099;28;11569;-77
2022/03/10 04:57:09;;;;;;;;;16.25;14.75;;;;;;;;5226613;28;11749;-76
2022/03/10 04:59:41;;;;;;;;;57.50;43.50;;;;;;;;5227451;28;8780;-74
2022/03/10 05:02:12;;;;;;;;;27.25;26.00;;;;;;;;5227254;28;11435;-73
2022/03/10 05:04:43;;;;;;;;;13.33;12.67;;;;;;;;5211305;28;10030;-74
2022/03/10 05:07:14;;;;;;;;;20.67;19.33;;;;;;;;5227720;28;9410;-73
2022/03/10 05:09:45;;;;;;;;;10.00;9.67;;;;;;;;5245514;28;9778;-72
2022/03/10 05:12:16;;;;;;;;;33.50;30.75;;;;;;;;5213623;28;9643;-72
2022/03/10 05:14:47;;;;;;;;;24.25;23.00;;;;;;;;5218973;28;10414;-72
2022/03/10 05:17:19;;;;;;;;;23.75;21.50;;;;;;;;5192617;28;9549;-74
2022/03/10 05:19:51;;;;;;;;;24.00;24.00;;;;;;;;5208867;28;9821;-73
2022/03/10 05:22:22;;;;;;;;;9.67;9.67;;;;;;;;5175924;28;9791;-73
2022/03/10 05:24:53;;;;;;;;;6.33;6.33;;;;;;;;5192644;28;9285;-73
2022/03/10 05:27:25;;;;;;;;;10.67;10.67;;;;;;;;5214674;28;9161;-72
2022/03/10 05:30:15;;;;;;;;;3.33;3.33;;;;;;;;5229170;28;9355;-74
2022/03/10 05:32:46;;;;;;;;;1.00;1.00;;;;;;;;5245808;28;9619;-74
2022/03/10 05:35:17;;;;;;;;;4.33;4.33;;;;;;;;5196324;28;8883;-74
2022/03/10 05:37:51;;;;;;;;;6.00;5.33;;;;;;;;5196437;28;9700;-74
2022/03/10 05:40:23;;;;;;;;;7.33;7.00;;;;;;;;5212550;28;9142;-73
2022/03/10 05:42:55;;;;;;;;;4.00;4.00;;;;;;;;5212576;28;9021;-73
2022/03/10 05:45:26;;;;;;;;;6.00;6.00;;;;;;;;5211668;28;8887;-73
2022/03/10 05:48:15;;;;;;;;;4.00;4.00;;;;;;;;5228647;28;9090;-74
2022/03/10 05:50:47;;;;;;;;;5.00;5.00;;;;;;;;5213981;28;8856;-72
2022/03/10 05:53:18;;;;;;;;;2.50;2.50;;;;;;;;5240679;28;8834;-72
2022/03/10 05:55:49;;;;;;;;;4.00;4.00;;;;;;;;5243437;28;9499;-72
2022/03/10 05:58:20;;;;;;;;;10.67;10.67;;;;;;;;5230305;28;9398;-73
2022/03/10 06:00:51;;;;;;;;;5.50;5.50;;;;;;;;5213519;28;8813;-73
2022/03/10 06:03:22;;;;;;;;;0.67;0.67;;;;;;;;5230122;28;8975;-73
2022/03/10 06:05:53;;;;;;;;;0.33;0.33;;;;;;;;5230284;28;9363;-73
2022/03/10 06:08:25;;;;;;;;;0.00;0.00;;;;;;;;5213460;28;9580;-73
2022/03/10 06:10:56;;;;;;;;;38.50;38.50;;;;;;;;5212889;28;8813;-73
2022/03/10 06:13:27;;;;;;;;;6.25;5.50;;;;;;;;5230348;28;11404;-74
2022/03/10 06:15:58;;;;;;;;;2.00;2.00;;;;;;;;5216668;28;8830;-74
2022/03/10 06:18:30;;;;;;;;;0.25;0.25;;;;;;;;5193179;28;8826;-74
2022/03/10 06:21:01;;;;;;;;;2.00;1.00;;;;;;;;5244699;28;8796;-74
2022/03/10 06:23:32;;;;;;;;;0.00;0.00;;;;;;;;5213066;28;8777;-73
2022/03/10 06:26:03;;;;;;;;;0.00;0.00;;;;;;;;5187629;28;8928;-73
2022/03/10 06:28:34;;;;;;;;;1.00;1.00;;;;;;;;5192718;28;11496;-73
2022/03/10 06:31:06;;;;;;;;;3.00;3.00;;;;;;;;5193279;28;8915;-72
2022/03/10 06:33:38;;;;;;;;;1.00;1.00;;;;;;;;5211732;28;8818;-73
2022/03/10 06:36:09;;;;;;;;;19.00;19.00;;;;;;;;5217719;28;8792;-72
2022/03/10 06:38:40;;;;;;;;;26.25;26.00;;;;;;;;5219164;28;8873;-73
2022/03/10 06:41:29;;;;;;;;;19.00;19.00;;;;;;;;5229787;28;8781;-73
2022/03/10 06:44:00;;;;;;;;;6.67;6.67;;;;;;;;5245265;28;8777;-73
2022/03/10 06:46:32;;;;;;;;;7.25;7.25;;;;;;;;5247042;28;9526;-73
2022/03/10 06:49:03;;;;;;;;;9.25;8.25;;;;;;;;5212690;28;8911;-66
2022/03/10 06:51:35;;;;;;;;;3.25;3.25;;;;;;;;5228980;28;8815;-68
2022/03/10 06:54:06;;;;;;;;;5.50;5.50;;;;;;;;5229140;28;9520;-72
2022/03/10 06:56:38;;;;;;;;;13.50;13.50;;;;;;;;5229192;28;8835;-73
2022/03/10 06:59:09;;;;;;;;;12.75;12.75;;;;;;;;5225472;28;8976;-72
2022/03/10 07:01:41;;;;;;;;;14.75;14.75;;;;;;;;5208732;28;8801;-73
2022/03/10 07:04:12;;;;;;;;;6.50;6.00;;;;;;;;5208594;28;8777;-73
2022/03/10 07:06:44;;;;;;;;;23.75;23.25;;;;;;;;5208642;28;8782;-72
2022/03/10 07:09:15;;;;;;;;;7.00;6.67;;;;;;;;5225214;28;8843;-72
2022/03/10 07:11:46;;;;;;;;;12.00;12.00;;;;;;;;5224911;28;9500;-73
2022/03/10 07:14:17;;;;;;;;;10.75;10.75;;;;;;;;5224901;28;8909;-72
2022/03/10 07:16:48;;;;;;;;;32.50;31.00;;;;;;;;5224857;28;8880;-73
2022/03/10 07:19:19;;;;;;;;;28.67;26.00;;;;;;;;5224951;28;8774;-73
2022/03/10 07:21:50;;;;;;;;;19.67;18.00;;;;;;;;5208339;28;8929;-73
2022/03/10 07:24:21;;;;;;;;;24.33;22.67;;;;;;;;5225101;28;8793;-72
2022/03/10 07:26:52;;;;;;;;;20.75;19.25;;;;;;;;5224788;28;12368;-72
2022/03/10 07:29:23;;;;;;;;;74.67;61.67;;;;;;;;5224628;28;8894;-73
2022/03/10 07:31:54;;;;;;;;;15.75;15.75;;;;;;;;5224625;28;9289;-73
2022/03/10 07:34:25;;;;;;;;;12.75;11.00;;;;;;;;5224589;28;8813;-73
2022/03/10 07:36:56;;;;;;;;;23.33;21.00;;;;;;;;5224503;28;8852;-72
2022/03/10 07:39:27;;;;;;;;;14.75;11.00;;;;;;;;5208044;28;11608;-73
2022/03/10 07:42:00;;;;;;;;;0.60;0.60;;;;;;;;5224704;28;8762;-73
2022/03/10 07:44:31;;;;;;;;;15.00;14.50;;;;;;;;5208165;28;8793;-73
2022/03/10 07:47:20;;;;;;;;;11.25;11.25;;;;;;;;5226018;28;8786;-73
2022/03/10 07:49:51;;;;;;;;;0.20;0.20;;;;;;;;5223690;28;8900;-74
2022/03/10 07:52:22;;;;;;;;;5.60;5.60;;;;;;;;5209420;28;8766;-73
2022/03/10 07:54:53;;;;;;;;;1.40;1.40;;;;;;;;5224988;28;9482;-73
2022/03/10 07:57:25;;;;;;;;;10.80;9.60;;;;;;;;5207874;28;8842;-73
2022/03/10 07:59:56;;;;;;;;;5.20;5.20;;;;;;;;5208031;28;9587;-73
2022/03/10 08:02:27;;;;;;;;;12.25;12.00;;;;;;;;5223780;28;8818;-72
2022/03/10 08:04:57;;;;;;;;;3.50;3.50;;;;;;;;5207634;28;8846;-72
2022/03/10 08:07:32;;;;;;;;;4.00;3.00;;;;;;;;5225283;28;8810;-72
2022/03/10 08:10:04;;;;;;;;;14.50;13.00;;;;;;;;5221107;28;8774;-73
2022/03/10 08:12:35;;;;;;;;;12.00;12.00;;;;;;;;5224024;28;8801;-73
2022/03/10 08:15:06;;;;;;;;;2.00;2.00;;;;;;;;5207609;28;8858;-72
2022/03/10 08:17:39;;;;;;;;;5.20;5.20;;;;;;;;5207488;28;8809;-73
2022/03/10 08:20:28;;;;;;;;;2.60;1.80;;;;;;;;5225358;28;8801;-72
2022/03/10 08:22:59;;;;;;;;;3.50;3.00;;;;;;;;5206758;28;8797;-72
2022/03/10 08:25:30;;;;;;;;;6.00;6.00;;;;;;;;5223619;28;8920;-72
2022/03/10 08:28:01;;;;;;;;;4.00;4.00;;;;;;;;5223168;28;9571;-73
2022/03/10 08:30:33;;;;;;;;;9.40;9.40;;;;;;;;5223618;28;9647;-72
2022/03/10 08:33:04;;;;;;;;;6.00;6.00;;;;;;;;5207062;28;8829;-73
2022/03/10 08:35:35;;;;;;;;;0.25;0.25;;;;;;;;5206903;28;8798;-73
2022/03/10 08:38:07;;;;;;;;;8.60;7.60;;;;;;;;5219012;28;10021;-73
2022/03/10 08:40:39;;;;;;;;;19.00;18.40;;;;;;;;5186925;28;8946;-73
2022/03/10 08:43:12;;;;;;;;;3.00;3.00;;;;;;;;5197543;28;8817;-73
2022/03/10 08:45:43;;;;;;;;;20.20;18.60;;;;;;;;5210424;28;8895;-73
2022/03/10 08:48:14;;;;;;;;;13.50;12.75;;;;;;;;5209808;28;8963;-73
2022/03/10 08:50:45;;;;;;;;;0.00;0.00;;;;;;;;5211094;28;9489;-73
2022/03/10 08:53:17;;;;;;;;;34.00;34.00;;;;;;;;5227638;28;8790;-72
2022/03/10 08:55:48;;;;;;;;;3.20;3.20;;;;;;;;5211084;28;8801;-72
2022/03/10 08:58:19;;;;;;;;;6.00;6.00;;;;;;;;5227731;28;8824;-73
2022/03/10 09:00:50;;;;;;;;;1.00;1.00;;;;;;;;5210702;28;11425;-72
2022/03/10 09:03:22;;;;;;;;;3.80;3.00;;;;;;;;5227746;28;11078;-72
2022/03/10 09:06:12;;;;;;;;;3.00;3.00;;;;;;;;5227807;28;8986;-73
2022/03/10 09:08:45;;;;;;;;;9.00;9.00;;;;;;;;5227636;28;8828;-73
2022/03/10 09:11:17;;;;;;;;;3.00;3.00;;;;;;;;5226955;28;8785;-73
2022/03/10 09:13:48;;;;;;;;;6.20;6.20;;;;;;;;5227400;28;8813;-73
2022/03/10 09:16:20;;;;;;;;;2.50;2.50;;;;;;;;5228508;28;8792;-73
2022/03/10 09:18:51;;;;;;;;;5.80;5.80;;;;;;;;5210657;28;11448;-73
2022/03/10 09:21:21;;;;;;;;;18.25;18.00;;;;;;;;5210921;28;8770;-73
2022/03/10 09:24:11;;;;;;;;;0.00;0.00;;;;;;;;5239110;28;8828;-73
2022/03/10 09:26:42;;;;;;;;;1.80;1.80;;;;;;;;5211234;28;8785;-73
2022/03/10 09:29:13;;;;;;;;;5.00;5.00;;;;;;;;5227175;28;8833;-73
2022/03/10 09:31:44;;;;;;;;;2.50;2.50;;;;;;;;5210514;28;8796;-73
2022/03/10 09:34:15;;;;;;;;;4.25;4.25;;;;;;;;5226938;28;10563;-73
2022/03/10 09:36:45;;;;;;;;;0.40;0.40;;;;;;;;5227346;28;8805;-73
2022/03/10 09:39:18;;;;;;;;;0.00;0.00;;;;;;;;5210528;28;8824;-73
2022/03/10 09:41:49;;;;;;;;;1.80;1.80;;;;;;;;5226786;28;8793;-73
2022/03/10 09:44:21;;;;;;;;;3.60;3.60;;;;;;;;5210224;28;8798;-73
2022/03/10 09:46:53;;;;;;;;;5.60;4.00;;;;;;;;5226354;28;8793;-73
2022/03/10 09:49:24;;;;;;;;;4.40;4.40;;;;;;;;5226912;28;8817;-73
2022/03/10 09:52:13;;;;;;;;;4.40;4.40;;;;;;;;5200369;28;8784;-73
2022/03/10 09:54:44;;;;;;;;;3.80;3.00;;;;;;;;5223992;28;8812;-73
2022/03/10 09:57:16;;;;;;;;;2.20;2.20;;;;;;;;5225342;28;9006;-73
2022/03/10 09:59:51;;;;;;;;;0.00;0.00;;;;;;;;5207361;28;8862;-73
2022/03/10 10:02:22;;;;;;;;;6.80;6.80;;;;;;;;5225324;28;8794;-73
2022/03/10 10:04:53;;;;;;;;;7.00;7.00;;;;;;;;5207681;28;8810;-73
2022/03/10 10:07:27;;;;;;;;;7.20;6.60;;;;;;;;5208060;28;8844;-73
2022/03/10 10:09:58;;;;;;;;;15.20;15.20;;;;;;;;5207717;28;9521;-73
2022/03/10 10:12:30;;;;;;;;;11.20;10.80;;;;;;;;5207308;28;8804;-73
2022/03/10 10:15:08;;;;;;;;;4.80;4.80;;;;;;;;5207981;28;8878;-73
2022/03/10 10:17:39;;;;;;;;;15.00;12.40;;;;;;;;5225655;28;8942;-73
2022/03/10 10:20:10;;;;;;;;;4.40;4.40;;;;;;;;5225886;28;8805;-73
2022/03/10 10:22:41;;;;;;;;;1.40;1.40;;;;;;;;5224013;28;8836;-73
2022/03/10 10:25:12;;;;;;;;;5.00;5.00;;;;;;;;5207439;28;8826;-73
2022/03/10 10:27:43;;;;;;;;;5.00;4.50;;;;;;;;5225064;28;11552;-73
2022/03/10 10:30:14;;;;;;;;;7.00;7.00;;;;;;;;5207079;28;8932;-73
2022/03/10 10:32:44;;;;;;;;;25.25;22.50;;;;;;;;5207121;28;8809;-74
2022/03/10 10:35:20;;;;;;;;;1.00;1.00;;;;;;;;5207460;28;8798;-73
2022/03/10 10:37:52;;;;;;;;;4.80;4.80;;;;;;;;5206989;28;8850;-71
2022/03/10 10:40:24;;;;;;;;;0.60;0.60;;;;;;;;5207133;28;8947;-74
2022/03/10 10:42:56;;;;;;;;;1.00;1.00;;;;;;;;5207035;28;8822;-72
2022/03/10 10:45:28;;;;;;;;;2.60;2.60;;;;;;;;5223596;28;8924;-72
2022/03/10 10:47:59;;;;;;;;;1.00;1.00;;;;;;;;5223711;28;8813;-72
2022/03/10 10:50:31;;;;;;;;;0.00;0.00;;;;;;;;5207101;28;9555;-72
2022/03/10 10:53:02;;;;;;;;;3.00;3.00;;;;;;;;5223335;28;8829;-73
2022/03/10 10:55:35;;;;;;;;;2.00;1.20;;;;;;;;5206964;28;8883;-72
2022/03/10 10:58:10;;;;;;;;;16.80;16.80;;;;;;;;5206620;28;8837;-71
2022/03/10 11:00:43;;;;;;;;;7.80;7.80;;;;;;;;5223530;28;8871;-71
2022/03/10 11:03:21;;;;;;;;;3.40;3.40;;;;;;;;5207153;28;8809;-73
2022/03/10 11:05:53;;;;;;;;;5.80;5.80;;;;;;;;5224072;28;9667;-72
2022/03/10 11:08:42;;;;;;;;;8.40;8.40;;;;;;;;5223060;28;8821;-72
2022/03/10 11:11:15;;;;;;;;;0.25;0.25;;;;;;;;5222962;28;8813;-72
2022/03/10 11:13:46;;;;;;;;;0.80;0.80;;;;;;;;5223317;28;8786;-73
2022/03/10 11:16:18;;;;;;;;;6.80;6.80;;;;;;;;5206083;28;9524;-73
2022/03/10 11:18:50;;;;;;;;;6.20;5.80;;;;;;;;5223599;28;10062;-73
2022/03/10 11:21:21;;;;;;;;;1.00;1.00;;;;;;;;5190127;28;8801;-73
2022/03/10 11:24:10;;;;;;;;;4.00;4.00;;;;;;;;5224438;28;8785;-73
2022/03/10 11:26:45;;;;;;;;;7.60;7.60;;;;;;;;5223183;28;8867;-73
2022/03/10 11:29:35;;;;;;;;;6.80;6.80;;;;;;;;5223042;28;8977;-73
2022/03/10 11:32:06;;;;;;;;;7.00;7.00;;;;;;;;5206555;28;8816;-73
2022/03/10 11:34:52;;;;;;;;;4.00;4.00;;;;;;;;5221687;28;8827;-73
2022/03/10 11:37:44;;;;;;;;;5.60;5.60;;;;;;;;5222796;28;8807;-74
2022/03/10 11:40:17;;;;;;;;;0.60;0.60;;;;;;;;5224703;28;8790;-74
2022/03/10 11:42:58;;;;;;;;;3.00;3.00;;;;;;;;5225630;28;9567;-74
2022/03/10 11:45:31;;;;;;;;;7.20;7.20;;;;;;;;5207988;28;8872;-74
2022/03/10 11:48:20;;;;;;;;;7.00;7.00;;;;;;;;5207884;28;8916;-74
2022/03/10 11:50:51;;;;;;;;;0.00;0.00;;;;;;;;5208363;28;8786;-74
2022/03/10 11:53:22;;;;;;;;;3.20;3.20;;;;;;;;5207951;28;9488;-74
2022/03/10 11:55:54;;;;;;;;;4.00;4.00;;;;;;;;5224192;28;8806;-74
2022/03/10 11:58:34;;;;;;;;;0.00;0.00;;;;;;;;5223968;28;8818;-74
2022/03/10 12:01:05;;;;;;;;;4.00;4.00;;;;;;;;5224029;28;9541;-74
2022/03/10 12:03:37;;;;;;;;;3.50;3.50;;;;;;;;5224310;28;8790;-74
2022/03/10 12:06:08;;;;;;;;;2.60;2.60;;;;;;;;5187449;28;10265;-75
2022/03/10 12:08:40;;;;;;;;;11.80;11.00;;;;;;;;5224788;28;8810;-75
2022/03/10 12:11:15;;;;;;;;;8.20;8.20;;;;;;;;5208147;28;8777;-75
2022/03/10 12:13:46;;;;;;;;;9.60;9.60;;;;;;;;5207431;28;8806;-75
2022/03/10 12:16:26;;;;;;;;;2.60;2.60;;;;;;;;5225315;28;8773;-75
2022/03/10 12:18:59;;;;;;;;;0.00;0.00;;;;;;;;5207624;28;8801;-73
2022/03/10 12:21:30;;;;;;;;;2.20;2.20;;;;;;;;5209415;28;8793;-73
2022/03/10 12:24:02;;;;;;;;;6.20;6.20;;;;;;;;5228473;28;8770;-73
2022/03/10 12:26:37;;;;;;;;;4.00;4.00;;;;;;;;5227685;28;9586;-73
2022/03/10 12:29:12;;;;;;;;;9.00;9.00;;;;;;;;5211493;28;8883;-73
2022/03/10 12:31:43;;;;;;;;;5.80;4.20;;;;;;;;5229287;28;8786;-73
2022/03/10 12:34:14;;;;;;;;;6.25;6.25;;;;;;;;5228136;28;9505;-73
2022/03/10 12:36:49;;;;;;;;;4.00;4.00;;;;;;;;5227960;28;8911;-73
2022/03/10 12:39:22;;;;;;;;;19.20;17.80;;;;;;;;5211429;28;8828;-73
2022/03/10 12:42:02;;;;;;;;;11.40;11.40;;;;;;;;5211513;28;8813;-72
2022/03/10 12:44:34;;;;;;;;;5.60;5.60;;;;;;;;5228218;28;8786;-73
2022/03/10 12:47:07;;;;;;;;;4.40;4.40;;;;;;;;5210886;28;8814;-73
2022/03/10 12:49:45;;;;;;;;;3.00;3.00;;;;;;;;5229162;28;8787;-73
2022/03/10 12:52:17;;;;;;;;;0.60;0.60;;;;;;;;5211326;28;8788;-73
2022/03/10 12:55:10;;;;;;;;;22.60;22.00;;;;;;;;5213841;28;8771;-73
2022/03/10 12:57:41;;;;;;;;;8.00;8.00;;;;;;;;5227402;28;8856;-73
2022/03/10 13:00:21;;;;;;;;;32.75;29.25;;;;;;;;5243749;28;8793;-73
2022/03/10 13:03:11;;;;;;;;;30.60;25.80;;;;;;;;5228286;28;8920;-77
2022/03/10 13:05:42;;;;;;;;;12.50;11.75;;;;;;;;5211128;28;9010;-75
2022/03/10 13:08:13;;;;;;;;;1.00;1.00;;;;;;;;5220820;28;8894;-72
2022/03/10 13:10:56;;;;;;;;;2.20;2.20;;;;;;;;5206664;28;8796;-72
2022/03/10 13:13:30;;;;;;;;;3.40;3.40;;;;;;;;5208141;28;9570;-72
2022/03/10 13:16:03;;;;;;;;;12.20;12.20;;;;;;;;5222746;28;8798;-72
2022/03/10 13:18:43;;;;;;;;;3.00;3.00;;;;;;;;5211193;28;8817;-72
2022/03/10 13:21:16;;;;;;;;;0.40;0.40;;;;;;;;5210762;28;8778;-73
2022/03/10 13:24:05;;;;;;;;;18.00;18.00;;;;;;;;5227081;28;8896;-73
2022/03/10 13:26:36;;;;;;;;;9.50;9.50;;;;;;;;5210660;28;8806;-73
2022/03/10 13:29:07;;;;;;;;;3.50;3.00;;;;;;;;5227324;28;11483;-73
2022/03/10 13:31:38;;;;;;;;;7.00;7.00;;;;;;;;5226768;28;8794;-73
2022/03/10 13:34:09;;;;;;;;;8.60;8.60;;;;;;;;5226077;28;8828;-73
2022/03/10 13:36:40;;;;;;;;;14.20;14.20;;;;;;;;5228337;28;8951;-73
2022/03/10 13:39:11;;;;;;;;;93.67;69.33;;;;;;;;5226642;28;9686;-72
2022/03/10 13:41:45;;;;;;;;;48.60;40.00;;;;;;;;5227727;28;8797;-72
2022/03/10 13:44:16;;;;;;;;;22.80;21.00;;;;;;;;5227546;28;8855;-72
2022/03/10 13:46:47;;;;;;;;;7.40;6.40;;;;;;;;5226204;28;8798;-73
2022/03/10 13:49:19;;;;;;;;;10.00;10.00;;;;;;;;5194081;28;9480;-72
2022/03/10 13:51:50;;;;;;;;;47.25;40.00;;;;;;;;5226403;28;11413;-73
2022/03/10 13:54:25;;;;;;;;;8.60;8.60;;;;;;;;5227344;28;8810;-73
2022/03/10 13:56:59;;;;;;;;;9.00;8.60;;;;;;;;5227315;28;9726;-73
2022/03/10 13:59:30;;;;;;;;;9.00;7.80;;;;;;;;5240136;28;8831;-72
2022/03/10 14:02:01;;;;;;;;;9.20;9.00;;;;;;;;5247517;28;8787;-72
2022/03/10 14:04:36;;;;;;;;;8.20;8.20;;;;;;;;5230521;28;8781;-73
2022/03/10 14:07:07;;;;;;;;;6.00;6.00;;;;;;;;5246783;28;8795;-72
2022/03/10 14:09:42;;;;;;;;;20.20;19.60;;;;;;;;5239956;28;8904;-72
2022/03/10 14:12:14;;;;;;;;;17.80;16.00;;;;;;;;5207498;28;8807;-72
2022/03/10 14:14:54;;;;;;;;;6.20;6.20;;;;;;;;5241515;28;8885;-72
2022/03/10 14:17:41;;;;;;;;;25.80;21.60;;;;;;;;5211683;28;8809;-73
2022/03/10 14:20:12;;;;;;;;;25.00;19.80;;;;;;;;5228666;28;8811;-72
2022/03/10 14:22:44;;;;;;;;;32.00;26.80;;;;;;;;5211857;28;8781;-72
2022/03/10 14:25:15;;;;;;;;;51.25;44.00;;;;;;;;5211278;28;8797;-72
2022/03/10 14:27:47;;;;;;;;;28.80;26.60;;;;;;;;5238269;28;8792;-73
2022/03/10 14:30:24;;;;;;;;;17.40;16.80;;;;;;;;5224190;28;8791;-73
2022/03/10 14:32:55;;;;;;;;;12.80;11.60;;;;;;;;5199358;28;8781;-72
2022/03/10 14:35:26;;;;;;;;;9.50;9.50;;;;;;;;5211212;28;8893;-72
2022/03/10 14:37:57;;;;;;;;;12.25;11.50;;;;;;;;5227538;28;10753;-73
2022/03/10 14:40:28;;;;;;;;;9.25;9.00;;;;;;;;5227780;28;9184;-72
2022/03/10 14:43:01;;;;;;;;;3.00;3.00;;;;;;;;5227612;28;8851;-72
2022/03/10 14:45:32;;;;;;;;;27.00;26.80;;;;;;;;5227222;28;8780;-72
2022/03/10 14:48:04;;;;;;;;;11.20;10.00;;;;;;;;5245067;28;8804;-72
2022/03/10 14:50:35;;;;;;;;;13.60;12.80;;;;;;;;5245372;28;8781;-72
2022/03/10 14:53:07;;;;;;;;;6.80;6.40;;;;;;;;5210406;28;8934;-72
2022/03/10 14:55:38;;;;;;;;;5.40;5.40;;;;;;;;5211229;28;9515;-73
2022/03/10 14:58:09;;;;;;;;;23.80;23.20;;;;;;;;5210743;28;8975;-72
2022/03/10 15:00:40;;;;;;;;;9.75;8.00;;;;;;;;5210647;28;9674;-72
2022/03/10 15:03:12;;;;;;;;;12.80;12.80;;;;;;;;5210387;28;8784;-72
2022/03/10 15:05:43;;;;;;;;;43.00;37.25;;;;;;;;5227536;28;8796;-71
2022/03/10 15:08:13;;;;;;;;;83.33;66.00;;;;;;;;5210773;28;8780;-72
2022/03/10 15:11:02;;;;;;;;;73.25;58.00;;;;;;;;5213118;28;8789;-72
2022/03/10 15:13:34;;;;;;;;;49.50;44.50;;;;;;;;5241611;28;8796;-71
2022/03/10 15:16:23;;;;;;;;;41.50;38.75;;;;;;;;5223190;28;8885;-73
2022/03/10 15:18:54;;;;;;;;;28.33;27.67;;;;;;;;5208649;28;8781;-72
2022/03/10 15:21:25;;;;;;;;;30.00;29.33;;;;;;;;5231168;28;11504;-71